EKSB/SGD METAR and TAF weather

Enter ICAO airport designator
Station Type Date Time Source
EKSB METAR 2022/01/26 08:20 UTC NOAA

EKSB 260820Z 25010KT 220V290 5000 -RADZ BKN010 05/03 Q1023


Station Type Date Time Source
EKSB Decoded METAR 2022/01/26 08:20 UTC NOAA

Soenderborg Lufthavn, Denmark (EKSB) 54-58N 009-47E 14M
Jan 26, 2022 - 03:20 AM EST / 2022.01.26 0820 UTC
Wind: from the WSW (250 degrees) at 12 MPH (10 KT) (direction variable):0
Visibility: 3 mile(s):0
Sky conditions: mostly cloudy
Weather: light rain, drizzle
Temperature: 41 F (5 C)
Dew Point: 37 F (3 C)
Relative Humidity: 86%
Pressure (altimeter): 30.21 in. Hg (1023 hPa)
ob: EKSB 260820Z 25010KT 220V290 5000 -RADZ BKN010 05/03 Q1023
cycle: 8

Station Type Date Time Source
EKSB TAF 2016/01/27 09:03 UTC NOAA

TAF TAF EKSB 270856Z 2709/2721 23022KT 5000 -RA BR BKN008
TEMPO 2709/2721 24025G40KT 2000 RADZ BKN004

Example: see airport list